Hauptseite
METAR-TAF:

METAR-TAF

Flughäfen :

Flughafen Saarbrücken

Saarbrücken, Deutschland

Breite: 49-13N, Länge: 007-07E, Höhe: 322 m

Beobachtung

Neuester Wetterbericht von vor 20 Minuten, um 19:50 UTC
Wind 9 kt aus Ost/Nordost
Temperatur -3°C
Luftfeuchtigkeit 80%
Luftdruck 1017 hPa
Sichtweite 10 km oder mehr
Durchbrochene Bewölkung in der Höhe von 2200 ft

METAR: EDDR 201950Z 06009KT 9999 BKN022 M03/M06 Q1017 NOSIG

Zeit: 21:10 (20:10 UTC)

Prognose

Neuester Wetterbericht von vor 3 Stunden und 10 Minuten, um 17:00 UTC
Gültige Prognose vom 20 um 18 UTC bis 21 um 18 UTC
Wind 6 kt aus Nordost
Sichtweite 10 km oder mehr
Durchbrochene Bewölkung in der Höhe von 1200 ft
Übergehend zu
vom 20 um 18 UTC bis 20 um 20 UTC
Aufgelockert bewölkt in der Höhe von 1200 ft

TAF: EDDR 201700Z 2018/2118 04006KT 9999 BKN012 BECMG 2018/2020 SCT012

Wetterbeobachtungen und Prognosen von mehr als 4000 Flughäfen (METAR und TAF Bericht).

Die verfügbaren Stationen werden durch gelbe und rote Markierungen auf der Karte dargestellt.

Führen Sie die Maus auf sie, um den Namen der Station zu sehen.

Darauf klicken, um die Beobachtung von Wetterbeobachtungen und Prognosen zu sehen.

Um die Karte zu ändern : klicken Sie auf den grünen Tasten mit einem schwarzen Kreuz Zum Vergrößern, auf den grünen Button mit einem Gedankenstrich zu verkleinern, oder auf die grünen Pfeile für benachbarte Karten.


METAR-TAF: